virtualACA

Welcome To Calgary International Airport CYYC

Hub Roster

Pilot Domicile Rank
Ethan Title - ACA1641CanadaChief Pilot
Graham Dawson - ACA2317CanadaChief Pilot
Rashaido Brown - ACA3288JamaicaFirst Officer

Current Vatsim Weather


CYYC 041700Z 36006KT 280V020 40SM FEW055 SCT070 SCT100 BKN150 12/M02 A2994 RMK CU1AC3AC1AC3 CU TR VIRGA N-S SLP155 DENSITY ALT 4100FT
Calgary International Airport